Time,TemperatureF,DewpointF,PressureIn,WindDirection,WindDirectionDegrees,WindSpeedMPH,WindSpeedGustMPH,Humidity,HourlyPrecipIn,Conditions,Clouds,dailyrainin,SoftwareType,DateUTC
2013-07-29 00:01:00,59.2,59.2,28.70,SE,135,0.0,0.0,100,0.00,RA,SKC,0.00,WeatherDisplay:10.37,2013-07-29 04:01:00,
2013-07-29 00:03:00,59.2,59.2,28.70,SE,135,0.0,0.0,100,0.00,RA,SKC,0.00,WeatherDisplay:10.37,2013-07-29 04:03:00,
2013-07-29 00:07:00,59.2,59.2,28.70,SE,135,0.0,0.0,100,0.00,RA,SKC,0.00,WeatherDisplay:10.37,2013-07-29 04:07:00,
2013-07-29 00:12:00,58.6,58.6,28.70,West,270,0.0,0.0,100,0.00,CLR,SKC,0.00,WeatherDisplay:10.37,2013-07-29 04:12:00,
2013-07-29 00:17:00,58.3,58.3,28.71,West,270,0.0,0.0,100,0.00,CLR,SKC,0.00,WeatherDisplay:10.37,2013-07-29 04:17:00,
2013-07-29 00:22:00,57.9,57.9,28.71,West,270,0.0,0.0,100,0.00,CLR,SKC,0.00,WeatherDisplay:10.37,2013-07-29 04:22:00,
2013-07-29 00:27:00,57.7,57.7,28.71,West,270,0.0,0.0,100,0.00,CLR,SKC,0.00,WeatherDisplay:10.37,2013-07-29 04:27:00,
2013-07-29 00:32:00,57.7,57.7,28.71,West,270,0.0,0.0,100,0.00,CLR,SKC,0.00,WeatherDisplay:10.37,2013-07-29 04:32:00,
2013-07-29 00:37:00,57.7,57.7,28.71,West,270,0.0,0.0,100,0.00,CLR,SKC,0.00,WeatherDisplay:10.37,2013-07-29 04:37:00,
2013-07-29 00:42:00,57.6,57.6,28.71,West,270,0.0,0.0,100,0.00,CLR,SKC,0.00,WeatherDisplay:10.37,2013-07-29 04:42:00,
2013-07-29 00:47:00,57.4,57.4,28.71,West,270,0.0,0.0,100,0.00,CLR,SKC,0.00,WeatherDisplay:10.37,2013-07-29 04:47:00,
2013-07-29 00:52:00,57.6,57.6,28.71,West,270,0.0,0.0,100,0.00,CLR,SKC,0.00,WeatherDisplay:10.37,2013-07-29 04:52:00,
2013-07-29 00:57:00,57.4,57.4,28.71,West,270,0.0,0.0,100,0.00,CLR,SKC,0.00,WeatherDisplay:10.37,2013-07-29 04:57:00,
2013-07-29 01:02:00,57.2,57.2,28.71,West,270,0.0,0.0,100,0.00,CLR,SKC,0.00,WeatherDisplay:10.37,2013-07-29 05:02:00,
2013-07-29 01:07:00,57.2,57.2,28.71,West,270,0.0,0.0,100,0.00,CLR,SKC,0.00,WeatherDisplay:10.37,2013-07-29 05:07:00,
2013-07-29 01:12:00,57.4,57.4,28.71,SE,135,0.0,0.0,100,0.00,CLR,SKC,0.00,WeatherDisplay:10.37,2013-07-29 05:12:00,
2013-07-29 01:17:00,57.2,57.2,28.71,SE,135,0.0,0.0,100,0.00,CLR,SKC,0.00,WeatherDisplay:10.37,2013-07-29 05:17:00,
2013-07-29 01:22:00,57.0,57.0,28.71,SE,135,0.0,0.0,100,0.00,CLR,SKC,0.00,WeatherDisplay:10.37,2013-07-29 05:22:00,
2013-07-29 01:27:00,56.7,56.7,28.71,SE,135,0.0,0.0,100,0.00,CLR,SKC,0.00,WeatherDisplay:10.37,2013-07-29 05:27:00,
2013-07-29 01:32:00,56.7,56.7,28.71,SE,135,0.0,0.0,100,0.00,CLR,SKC,0.00,WeatherDisplay:10.37,2013-07-29 05:32:00,
2013-07-29 01:37:00,56.5,56.5,28.71,SE,135,0.0,0.0,100,0.00,CLR,SKC,0.00,WeatherDisplay:10.37,2013-07-29 05:37:00,
2013-07-29 01:42:00,56.3,56.3,28.71,SE,135,0.0,0.0,100,0.00,CLR,SKC,0.00,WeatherDisplay:10.37,2013-07-29 05:42:00,
2013-07-29 01:47:00,56.3,56.3,28.71,SE,135,0.0,0.0,100,0.00,CLR,SKC,0.00,WeatherDisplay:10.37,2013-07-29 05:47:00,
2013-07-29 01:52:00,56.3,56.3,28.71,SE,135,0.0,0.0,100,0.00,CLR,SKC,0.00,WeatherDisplay:10.37,2013-07-29 05:52:00,
2013-07-29 01:57:00,56.3,56.3,28.71,SE,135,0.0,0.0,100,0.00,CLR,SKC,0.00,WeatherDisplay:10.37,2013-07-29 05:57:00,
2013-07-29 02:02:00,56.1,56.1,28.71,SE,135,0.0,0.0,100,0.00,CLR,SKC,0.00,WeatherDisplay:10.37,2013-07-29 06:02:00,
2013-07-29 02:07:00,56.1,56.1,28.71,SE,135,0.0,0.0,100,0.00,CLR,SKC,0.00,WeatherDisplay:10.37,2013-07-29 06:07:00,
2013-07-29 02:12:00,56.1,56.1,28.71,SE,135,0.0,0.0,100,0.00,CLR,SKC,0.00,WeatherDisplay:10.37,2013-07-29 06:12:00,
2013-07-29 02:17:00,56.3,56.3,28.71,SE,135,0.0,0.0,100,0.00,CLR,SKC,0.00,WeatherDisplay:10.37,2013-07-29 06:17:00,
2013-07-29 02:22:00,56.3,56.3,28.71,SE,135,0.0,0.0,100,0.00,CLR,SKC,0.00,WeatherDisplay:10.37,2013-07-29 06:22:00,
2013-07-29 02:27:00,56.5,56.5,28.71,SE,135,0.0,0.0,100,0.00,CLR,SKC,0.00,WeatherDisplay:10.37,2013-07-29 06:27:00,
2013-07-29 02:32:00,56.5,56.5,28.71,SE,135,0.0,0.0,100,0.00,CLR,SKC,0.00,WeatherDisplay:10.37,2013-07-29 06:32:00,
2013-07-29 02:37:00,56.5,56.5,28.71,SE,135,0.0,0.0,100,0.00,CLR,SKC,0.00,WeatherDisplay:10.37,2013-07-29 06:37:00,
2013-07-29 02:42:00,56.5,56.5,28.71,SE,135,0.0,0.0,100,0.00,CLR,SKC,0.00,WeatherDisplay:10.37,2013-07-29 06:42:00,
2013-07-29 02:47:00,56.7,56.7,28.71,SE,135,0.0,0.0,100,0.00,CLR,SKC,0.00,WeatherDisplay:10.37,2013-07-29 06:47:00,
2013-07-29 02:52:00,56.5,56.5,28.71,SE,135,0.0,0.0,100,0.00,CLR,SKC,0.00,WeatherDisplay:10.37,2013-07-29 06:52:00,
2013-07-29 02:57:00,56.5,56.5,28.71,SE,135,0.0,0.0,100,0.00,CLR,SKC,0.00,WeatherDisplay:10.37,2013-07-29 06:57:00,
2013-07-29 03:02:00,56.5,56.5,28.71,SE,135,0.0,0.0,100,0.00,CLR,SKC,0.00,WeatherDisplay:10.37,2013-07-29 07:02:00,
2013-07-29 03:07:00,56.5,56.5,28.71,SE,135,0.0,0.0,100,0.00,CLR,SKC,0.00,WeatherDisplay:10.37,2013-07-29 07:07:00,
2013-07-29 03:12:00,56.1,56.1,28.71,SE,135,0.0,0.0,100,0.00,CLR,SKC,0.00,WeatherDisplay:10.37,2013-07-29 07:12:00,
2013-07-29 03:17:00,55.9,55.9,28.71,SE,135,0.0,0.0,100,0.00,CLR,SKC,0.00,WeatherDisplay:10.37,2013-07-29 07:17:00,
2013-07-29 03:22:00,55.9,55.9,28.71,South,180,0.0,0.0,100,0.00,CLR,SKC,0.00,WeatherDisplay:10.37,2013-07-29 07:22:00,
2013-07-29 03:27:00,55.9,55.9,28.71,South,180,0.0,0.0,100,0.00,CLR,SKC,0.00,WeatherDisplay:10.37,2013-07-29 07:27:00,
2013-07-29 03:32:00,55.8,55.8,28.71,South,180,0.0,0.0,100,0.00,CLR,SKC,0.00,WeatherDisplay:10.37,2013-07-29 07:32:00,
2013-07-29 03:37:00,55.6,55.6,28.71,South,180,0.0,0.0,100,0.00,CLR,SKC,0.00,WeatherDisplay:10.37,2013-07-29 07:37:00,
2013-07-29 03:42:00,55.6,55.6,28.71,South,180,0.0,0.0,100,0.00,CLR,SKC,0.00,WeatherDisplay:10.37,2013-07-29 07:42:00,
2013-07-29 03:47:00,55.4,55.4,28.72,South,180,0.0,0.0,100,0.00,CLR,SKC,0.00,WeatherDisplay:10.37,2013-07-29 07:47:00,
2013-07-29 03:52:00,55.6,55.6,28.72,South,180,0.0,0.0,100,0.00,CLR,SKC,0.00,WeatherDisplay:10.37,2013-07-29 07:52:00,
2013-07-29 03:57:00,55.6,55.6,28.71,South,180,0.0,0.0,100,0.00,CLR,SKC,0.00,WeatherDisplay:10.37,2013-07-29 07:57:00,
2013-07-29 04:02:00,55.6,55.6,28.71,South,180,0.0,0.0,100,0.00,CLR,SKC,0.00,WeatherDisplay:10.37,2013-07-29 08:02:00,
2013-07-29 04:07:00,55.6,55.6,28.72,South,180,0.0,0.0,100,0.00,CLR,SKC,0.00,WeatherDisplay:10.37,2013-07-29 08:07:00,
2013-07-29 04:12:00,55.2,55.2,28.72,South,180,0.0,0.0,100,0.00,CLR,SKC,0.00,WeatherDisplay:10.37,2013-07-29 08:12:00,
2013-07-29 04:17:00,55.0,55.0,28.72,South,180,0.0,0.0,100,0.00,CLR,SKC,0.00,WeatherDisplay:10.37,2013-07-29 08:17:00,
2013-07-29 04:22:00,54.9,54.9,28.72,South,180,0.0,0.0,100,0.00,CLR,SKC,0.00,WeatherDisplay:10.37,2013-07-29 08:22:00,
2013-07-29 04:27:00,54.7,54.7,28.72,South,180,0.0,0.0,100,0.00,CLR,SKC,0.00,WeatherDisplay:10.37,2013-07-29 08:27:00,
2013-07-29 04:32:00,54.9,54.9,28.72,South,180,0.0,0.0,100,0.00,CLR,SKC,0.00,WeatherDisplay:10.37,2013-07-29 08:32:00,
2013-07-29 04:37:00,54.7,54.7,28.72,South,180,0.0,0.0,100,0.00,CLR,SKC,0.00,WeatherDisplay:10.37,2013-07-29 08:37:00,
2013-07-29 04:42:00,54.5,54.5,28.72,South,180,0.0,0.0,100,0.00,CLR,SKC,0.00,WeatherDisplay:10.37,2013-07-29 08:42:00,
2013-07-29 04:47:00,54.3,54.3,28.72,South,180,0.0,0.0,100,0.00,CLR,SKC,0.00,WeatherDisplay:10.37,2013-07-29 08:47:00,
2013-07-29 04:52:00,54.3,54.3,28.72,South,180,0.0,0.0,100,0.00,CLR,SKC,0.00,WeatherDisplay:10.37,2013-07-29 08:52:00,
2013-07-29 04:57:00,54.3,54.3,28.72,SE,135,0.0,0.0,100,0.00,CLR,SKC,0.00,WeatherDisplay:10.37,2013-07-29 08:57:00,
2013-07-29 05:02:00,54.1,54.1,28.72,SE,135,0.0,0.0,100,0.00,CLR,SKC,0.00,WeatherDisplay:10.37,2013-07-29 09:02:00,
2013-07-29 05:07:00,54.1,54.1,28.72,SE,135,0.0,0.0,100,0.00,CLR,SKC,0.00,WeatherDisplay:10.37,2013-07-29 09:07:00,
2013-07-29 05:12:00,54.0,54.0,28.72,SE,135,0.0,0.0,100,0.00,CLR,SKC,0.00,WeatherDisplay:10.37,2013-07-29 09:12:00,
2013-07-29 05:17:00,54.0,54.0,28.73,SE,135,0.0,0.0,100,0.00,CLR,SKC,0.00,WeatherDisplay:10.37,2013-07-29 09:17:00,
2013-07-29 05:22:00,53.8,53.8,28.73,SE,135,0.0,0.0,100,0.00,CLR,SKC,0.00,WeatherDisplay:10.37,2013-07-29 09:22:00,
2013-07-29 05:27:00,53.8,53.8,28.73,SE,135,0.0,0.0,100,0.00,CLR,SKC,0.00,WeatherDisplay:10.37,2013-07-29 09:27:00,
2013-07-29 05:32:00,53.8,53.8,28.73,SE,135,0.0,0.0,100,0.00,CLR,SKC,0.00,WeatherDisplay:10.37,2013-07-29 09:32:00,
2013-07-29 05:37:00,53.6,53.6,28.73,South,180,0.0,0.0,100,0.00,CLR,SKC,0.00,WeatherDisplay:10.37,2013-07-29 09:37:00,
2013-07-29 05:42:00,53.8,53.8,28.73,South,180,0.0,0.0,100,0.00,CLR,SKC,0.00,WeatherDisplay:10.37,2013-07-29 09:42:00,
2013-07-29 05:47:00,53.8,53.8,28.73,SE,135,0.0,0.0,100,0.00,CLR,SKC,0.00,WeatherDisplay:10.37,2013-07-29 09:47:00,
2013-07-29 05:52:00,53.8,53.8,28.74,South,180,0.0,0.0,100,0.00,CLR,SKC,0.00,WeatherDisplay:10.37,2013-07-29 09:52:00,
2013-07-29 05:57:00,53.8,53.8,28.74,South,180,0.0,0.0,100,0.00,CLR,SKC,0.00,WeatherDisplay:10.37,2013-07-29 09:57:00,
2013-07-29 06:02:00,53.8,53.8,28.74,South,180,0.0,0.0,100,0.00,CLR,SKC,0.00,WeatherDisplay:10.37,2013-07-29 10:02:00,
2013-07-29 06:07:00,53.8,53.8,28.74,South,180,0.0,0.0,100,0.00,CLR,SKC,0.00,WeatherDisplay:10.37,2013-07-29 10:07:00,
2013-07-29 06:12:00,53.8,53.8,28.73,South,180,0.0,0.0,100,0.00,CLR,SKC,0.00,WeatherDisplay:10.37,2013-07-29 10:12:00,
2013-07-29 06:18:00,53.8,53.8,28.74,South,180,0.0,0.0,100,0.00,CLR,SKC,0.00,WeatherDisplay:10.37,2013-07-29 10:18:00,
2013-07-29 06:23:00,54.1,54.1,28.74,South,180,0.0,0.0,100,0.00,CLR,SKC,0.00,WeatherDisplay:10.37,2013-07-29 10:23:00,
2013-07-29 06:29:00,54.7,54.7,28.74,SE,135,0.0,0.0,100,0.00,CLR,SKC,0.00,WeatherDisplay:10.37,2013-07-29 10:29:00,
2013-07-29 06:34:00,54.9,54.9,28.74,South,180,0.0,0.0,100,0.00,CLR,SKC,0.00,WeatherDisplay:10.37,2013-07-29 10:34:00,
2013-07-29 06:39:00,54.7,54.7,28.74,South,180,0.0,0.0,100,0.00,CLR,SKC,0.00,WeatherDisplay:10.37,2013-07-29 10:39:00,
2013-07-29 06:44:00,55.0,55.0,28.75,South,180,0.0,0.0,100,0.00,CLR,SKC,0.00,WeatherDisplay:10.37,2013-07-29 10:44:00,
2013-07-29 06:49:00,55.9,55.9,28.75,South,180,0.0,0.0,100,0.00,CLR,SKC,0.00,WeatherDisplay:10.37,2013-07-29 10:49:00,
2013-07-29 06:54:00,56.3,55.7,28.75,South,180,0.0,0.0,98,0.00,CLR,SKC,0.00,WeatherDisplay:10.37,2013-07-29 10:54:00,
2013-07-29 06:59:00,56.5,55.6,28.74,South,180,0.0,0.0,97,0.00,CLR,SKC,0.00,WeatherDisplay:10.37,2013-07-29 10:59:00,
2013-07-29 07:04:00,56.5,55.6,28.75,South,180,0.0,0.0,97,0.00,CLR,SKC,0.00,WeatherDisplay:10.37,2013-07-29 11:04:00,
2013-07-29 07:09:00,56.1,54.4,28.75,South,180,0.0,0.0,94,0.00,CLR,SKC,0.00,WeatherDisplay:10.37,2013-07-29 11:09:00,
2013-07-29 07:14:00,56.3,54.3,28.75,SE,135,0.0,0.0,93,0.00,CLR,SKC,0.00,WeatherDisplay:10.37,2013-07-29 11:14:00,
2013-07-29 07:19:00,56.5,54.2,28.75,South,180,0.0,0.0,92,0.00,CLR,SKC,0.00,WeatherDisplay:10.37,2013-07-29 11:19:00,
2013-07-29 07:24:00,56.5,53.9,28.75,South,180,0.0,0.0,91,0.00,CLR,SKC,0.00,WeatherDisplay:10.37,2013-07-29 11:24:00,
2013-07-29 07:30:00,56.7,53.5,28.75,South,180,0.0,0.0,89,0.00,CLR,SKC,0.00,WeatherDisplay:10.37,2013-07-29 11:30:00,
2013-07-29 07:35:00,56.8,53.6,28.75,SE,135,0.0,0.0,89,0.00,CLR,SKC,0.00,WeatherDisplay:10.37,2013-07-29 11:35:00,
2013-07-29 07:40:00,57.0,53.5,28.75,South,180,0.0,0.0,88,0.00,CLR,SKC,0.00,WeatherDisplay:10.37,2013-07-29 11:40:00,
2013-07-29 07:45:00,57.2,53.4,28.76,South,180,3.5,0.0,87,0.00,CLR,SKC,0.00,WeatherDisplay:10.37,2013-07-29 11:45:00,
2013-07-29 07:50:00,57.4,53.2,28.76,SE,135,0.0,0.0,86,0.00,CLR,SKC,0.00,WeatherDisplay:10.37,2013-07-29 11:50:00,
2013-07-29 07:55:00,57.6,53.1,28.75,SE,135,0.0,0.0,85,0.00,CLR,SKC,0.00,WeatherDisplay:10.37,2013-07-29 11:55:00,
2013-07-29 08:02:00,57.9,52.8,28.76,SE,135,0.0,0.0,83,0.00,CLR,SKC,0.00,WeatherDisplay:10.37,2013-07-29 12:02:00,
2013-07-29 08:07:00,57.9,52.8,28.75,SE,135,0.0,0.0,83,0.00,CLR,SKC,0.00,WeatherDisplay:10.37,2013-07-29 12:07:00,
2013-07-29 08:12:00,58.6,52.1,28.76,South,180,0.0,0.0,79,0.00,CLR,SKC,0.00,WeatherDisplay:10.37,2013-07-29 12:12:00,
2013-07-29 08:17:00,59.0,52.1,28.76,West,270,0.0,0.7,78,0.00,CLR,SKC,0.00,WeatherDisplay:10.37,2013-07-29 12:17:00,
2013-07-29 08:22:00,59.4,52.1,28.75,SE,135,0.0,0.0,77,0.00,CLR,SKC,0.00,WeatherDisplay:10.37,2013-07-29 12:22:00,
2013-07-29 08:27:00,59.7,51.8,28.75,SE,135,1.2,1.2,75,0.00,CLR,SKC,0.00,WeatherDisplay:10.37,2013-07-29 12:27:00,
2013-07-29 08:32:00,60.1,51.4,28.75,North,8,0.0,0.0,73,0.00,CLR,SKC,0.00,WeatherDisplay:10.37,2013-07-29 12:32:00,
2013-07-29 08:37:00,60.4,51.4,28.76,South,180,1.2,0.0,72,0.00,CLR,SKC,0.00,WeatherDisplay:10.37,2013-07-29 12:37:00,
2013-07-29 08:42:00,60.8,50.6,28.76,SE,135,0.0,0.0,69,0.00,CLR,SKC,0.00,WeatherDisplay:10.37,2013-07-29 12:42:00,
2013-07-29 08:48:00,61.2,49.7,28.75,South,180,2.3,2.3,66,0.00,CLR,SKC,0.00,WeatherDisplay:10.37,2013-07-29 12:48:00,
2013-07-29 08:53:00,61.5,48.8,28.75,NNE,13,3.5,3.5,63,0.00,CLR,SKC,0.00,WeatherDisplay:10.37,2013-07-29 12:53:00,
2013-07-29 08:58:00,61.9,48.7,28.76,North,8,2.3,2.3,62,0.00,CLR,SKC,0.00,WeatherDisplay:10.37,2013-07-29 12:58:00,
2013-07-29 09:03:00,62.1,48.4,28.76,North,0,1.2,0.0,61,0.00,CLR,SKC,0.00,WeatherDisplay:10.37,2013-07-29 13:03:00,
2013-07-29 09:08:00,62.6,48.1,28.76,North,0,3.5,3.5,59,0.00,CLR,SKC,0.00,WeatherDisplay:10.37,2013-07-29 13:08:00,
2013-07-29 09:13:00,62.8,47.3,28.76,South,180,3.5,0.0,57,0.00,CLR,SKC,0.00,WeatherDisplay:10.37,2013-07-29 13:13:00,
2013-07-29 09:18:00,65.1,49.0,28.76,South,180,2.3,0.0,56,0.00,CLR,SKC,0.00,WeatherDisplay:10.37,2013-07-29 13:18:00,
2013-07-29 09:23:00,66.9,48.2,28.77,SE,135,1.2,1.2,51,0.00,CLR,SKC,0.00,WeatherDisplay:10.37,2013-07-29 13:23:00,
2013-07-29 09:28:00,67.6,47.2,28.76,West,270,1.2,1.2,48,0.00,CLR,SKC,0.00,WeatherDisplay:10.37,2013-07-29 13:28:00,
2013-07-29 09:34:00,68.5,45.8,28.77,South,180,2.3,2.3,44,0.00,CLR,SKC,0.00,WeatherDisplay:10.37,2013-07-29 13:34:00,
2013-07-29 09:39:00,69.4,44.1,28.76,West,270,5.8,5.8,40,0.00,CLR,SKC,0.00,WeatherDisplay:10.37,2013-07-29 13:39:00,
2013-07-29 09:44:00,70.5,43.7,28.77,NNE,12,3.5,3.5,38,0.00,CLR,SKC,0.00,WeatherDisplay:10.37,2013-07-29 13:44:00,
2013-07-29 09:49:00,70.0,41.8,28.76,South,180,1.2,1.6,36,0.00,CLR,SKC,0.00,WeatherDisplay:10.37,2013-07-29 13:49:00,
2013-07-29 09:54:00,68.9,43.6,28.77,West,270,2.3,2.3,40,0.00,CLR,SKC,0.00,WeatherDisplay:10.37,2013-07-29 13:54:00,
2013-07-29 10:00:00,69.8,46.3,28.76,NNE,12,2.3,0.0,43,0.00,CLR,SKC,0.00,WeatherDisplay:10.37,2013-07-29 14:00:00,
2013-07-29 10:05:00,69.8,46.3,28.76,North,0,2.3,0.0,43,0.00,CLR,SKC,0.00,WeatherDisplay:10.37,2013-07-29 14:05:00,
2013-07-29 10:10:00,71.8,44.1,28.76,South,180,2.3,2.3,37,0.00,CLR,SKC,0.00,WeatherDisplay:10.37,2013-07-29 14:10:00,
2013-07-29 10:17:00,72.7,47.0,28.76,East,90,2.3,0.0,40,0.00,CLR,SKC,0.00,WeatherDisplay:10.37,2013-07-29 14:17:00,
2013-07-29 10:22:00,73.2,46.1,28.76,North,5,4.6,0.0,38,0.00,CLR,SKC,0.00,WeatherDisplay:10.37,2013-07-29 14:22:00,
2013-07-29 10:27:00,73.9,48.1,28.76,North,0,3.5,0.0,40,0.00,CLR,SKC,0.00,WeatherDisplay:10.37,2013-07-29 14:27:00,
2013-07-29 10:32:00,74.1,48.2,28.76,West,270,2.3,2.3,40,0.00,CLR,SKC,0.00,WeatherDisplay:10.37,2013-07-29 14:32:00,
2013-07-29 10:37:00,74.3,49.1,28.76,South,180,2.3,2.3,41,0.00,CLR,SKC,0.00,WeatherDisplay:10.37,2013-07-29 14:37:00,
2013-07-29 10:42:00,75.0,49.7,28.76,West,270,3.5,3.5,41,0.00,CLR,SKC,0.00,WeatherDisplay:10.37,2013-07-29 14:42:00,
2013-07-29 10:47:00,75.2,50.5,28.76,West,270,3.5,3.5,42,0.00,CLR,SKC,0.00,WeatherDisplay:10.37,2013-07-29 14:47:00,
2013-07-29 10:52:00,75.9,53.6,28.76,South,180,1.2,1.2,46,0.00,CLR,SKC,0.00,WeatherDisplay:10.37,2013-07-29 14:52:00,
2013-07-29 10:57:00,76.1,52.0,28.76,North,0,1.2,3.1,43,0.00,CLR,SKC,0.00,WeatherDisplay:10.37,2013-07-29 14:57:00,
2013-07-29 11:02:00,75.4,53.2,28.76,North,0,2.3,2.3,46,0.00,CLR,SKC,0.00,WeatherDisplay:10.37,2013-07-29 15:02:00,
2013-07-29 11:07:00,75.4,53.2,28.76,North,0,2.3,2.3,46,0.00,CLR,SKC,0.00,WeatherDisplay:10.37,2013-07-29 15:07:00,
2013-07-29 11:13:00,78.1,55.0,28.76,West,270,3.5,3.5,45,0.00,CLR,SKC,0.00,WeatherDisplay:10.37,2013-07-29 15:13:00,
2013-07-29 11:18:00,78.1,55.6,28.76,SE,135,3.5,3.5,46,0.00,CLR,SKC,0.00,WeatherDisplay:10.37,2013-07-29 15:18:00,
2013-07-29 11:23:00,78.1,57.4,28.76,South,180,4.6,4.6,49,0.00,CLR,SKC,0.00,WeatherDisplay:10.37,2013-07-29 15:23:00,
2013-07-29 11:28:00,78.1,57.4,28.76,West,270,3.5,3.5,49,0.00,CLR,SKC,0.00,WeatherDisplay:10.37,2013-07-29 15:28:00,
2013-07-29 11:33:00,78.8,57.4,28.76,North,6,3.5,3.5,48,0.00,CLR,SKC,0.00,WeatherDisplay:10.37,2013-07-29 15:33:00,
2013-07-29 11:39:00,78.1,57.4,28.76,SE,135,4.6,4.6,49,0.00,CLR,SKC,0.00,WeatherDisplay:10.37,2013-07-29 15:39:00,
2013-07-29 11:45:00,75.4,58.1,28.76,West,270,11.5,11.5,55,0.00,CLR,SKC,0.00,WeatherDisplay:10.37,2013-07-29 15:45:00,
2013-07-29 11:50:00,73.4,58.7,28.76,NW,315,6.9,6.9,60,0.00,CLR,SKC,0.00,WeatherDisplay:10.37,2013-07-29 15:50:00,
2013-07-29 11:56:00,72.5,60.1,28.76,West,270,3.5,3.5,65,0.00,CLR,SKC,0.00,WeatherDisplay:10.37,2013-07-29 15:56:00,
2013-07-29 12:02:00,72.7,61.1,28.76,West,270,1.2,0.0,67,0.00,CLR,SKC,0.00,WeatherDisplay:10.37,2013-07-29 16:02:00,
2013-07-29 12:07:00,72.7,61.1,28.76,West,270,1.2,0.0,67,0.00,CLR,SKC,0.00,WeatherDisplay:10.37,2013-07-29 16:07:00,
2013-07-29 12:12:00,75.9,62.4,28.76,South,180,8.1,8.1,63,0.00,CLR,SKC,0.00,WeatherDisplay:10.37,2013-07-29 16:12:00,
2013-07-29 12:17:00,76.3,61.4,28.75,NW,315,3.5,0.0,60,0.00,CLR,SKC,0.00,WeatherDisplay:10.37,2013-07-29 16:17:00,
2013-07-29 12:22:00,76.3,61.8,28.75,West,270,8.1,8.1,61,0.00,CLR,SKC,0.00,WeatherDisplay:10.37,2013-07-29 16:22:00,
2013-07-29 12:27:00,75.0,61.6,28.76,West,270,11.5,11.5,63,0.00,CLR,SKC,0.00,WeatherDisplay:10.37,2013-07-29 16:27:00,
2013-07-29 12:33:00,76.3,60.9,28.76,West,270,3.5,3.8,59,0.00,CLR,SKC,0.00,WeatherDisplay:10.37,2013-07-29 16:33:00,
2013-07-29 12:38:00,78.1,63.1,28.76,West,270,3.5,3.5,60,0.00,CLR,SKC,0.00,WeatherDisplay:10.37,2013-07-29 16:38:00,
2013-07-29 12:44:00,79.2,65.0,28.76,NNE,13,1.2,1.2,62,0.00,CLR,SKC,0.00,WeatherDisplay:10.37,2013-07-29 16:44:00,
2013-07-29 12:49:00,78.4,64.3,28.76,West,270,5.8,0.0,62,0.00,CLR,SKC,0.00,WeatherDisplay:10.37,2013-07-29 16:49:00,
2013-07-29 12:54:00,76.3,62.8,28.76,West,270,8.1,8.1,63,0.00,CLR,SKC,0.00,WeatherDisplay:10.37,2013-07-29 16:54:00,
2013-07-29 12:59:00,75.4,63.2,28.76,West,270,4.6,4.6,66,0.00,CLR,SKC,0.00,WeatherDisplay:10.37,2013-07-29 16:59:00,
2013-07-29 13:04:00,75.2,63.5,28.76,NW,315,8.1,8.1,67,0.00,CLR,SKC,0.00,WeatherDisplay:10.37,2013-07-29 17:04:00,
2013-07-29 13:09:00,73.8,62.5,28.76,West,270,11.5,11.5,68,0.00,CLR,SKC,0.00,WeatherDisplay:10.37,2013-07-29 17:09:00,
2013-07-29 13:14:00,72.7,62.3,28.76,NW,315,6.9,6.9,70,0.00,CLR,SKC,0.00,WeatherDisplay:10.37,2013-07-29 17:14:00,
2013-07-29 13:19:00,72.5,63.0,28.76,West,270,2.3,2.3,72,0.00,CLR,SKC,0.00,WeatherDisplay:10.37,2013-07-29 17:19:00,
2013-07-29 13:24:00,73.0,62.7,28.77,West,270,6.9,6.9,70,0.00,CLR,SKC,0.00,WeatherDisplay:10.37,2013-07-29 17:24:00,
2013-07-29 13:29:00,73.2,63.6,28.77,West,270,3.5,3.5,72,0.00,CLR,SKC,0.00,WeatherDisplay:10.37,2013-07-29 17:29:00,
2013-07-29 13:34:00,73.2,63.2,28.77,West,270,5.8,5.8,71,0.00,CLR,SKC,0.00,WeatherDisplay:10.37,2013-07-29 17:34:00,
2013-07-29 13:40:00,74.3,64.3,28.76,West,270,3.5,0.0,71,0.00,CLR,SKC,0.00,WeatherDisplay:10.37,2013-07-29 17:40:00,
2013-07-29 13:45:00,76.5,65.1,28.76,NNE,12,3.5,3.5,68,0.00,CLR,SKC,0.00,WeatherDisplay:10.37,2013-07-29 17:45:00,
2013-07-29 13:50:00,77.0,65.2,28.76,West,270,3.5,3.5,67,0.00,CLR,SKC,0.00,WeatherDisplay:10.37,2013-07-29 17:50:00,
2013-07-29 13:55:00,75.7,63.6,28.76,NNE,12,9.2,9.2,66,0.00,CLR,SKC,0.00,WeatherDisplay:10.37,2013-07-29 17:55:00,
2013-07-29 14:00:00,74.7,63.4,28.77,West,270,3.5,3.5,68,0.00,CLR,SKC,0.00,WeatherDisplay:10.37,2013-07-29 18:00:00,
2013-07-29 14:05:00,74.7,63.4,28.76,West,270,3.5,3.5,68,0.00,CLR,SKC,0.00,WeatherDisplay:10.37,2013-07-29 18:05:00,
2013-07-29 14:10:00,75.2,64.7,28.77,West,270,4.6,4.6,70,0.00,CLR,SKC,0.00,WeatherDisplay:10.37,2013-07-29 18:10:00,
2013-07-29 14:15:00,75.2,65.1,28.77,West,270,4.6,4.6,71,0.00,CLR,SKC,0.00,WeatherDisplay:10.37,2013-07-29 18:15:00,
2013-07-29 14:20:00,76.8,66.3,28.77,West,270,11.5,11.5,70,0.00,CLR,SKC,0.00,WeatherDisplay:10.37,2013-07-29 18:20:00,
2013-07-29 14:25:00,78.1,66.2,28.77,South,180,4.6,4.6,67,0.00,CLR,SKC,0.00,WeatherDisplay:10.37,2013-07-29 18:25:00,
2013-07-29 14:30:00,77.5,65.3,28.77,NNE,12,3.5,3.5,66,0.00,CLR,SKC,0.00,WeatherDisplay:10.37,2013-07-29 18:30:00,
2013-07-29 14:35:00,76.3,64.5,28.77,West,270,3.5,3.5,67,0.00,CLR,SKC,0.00,WeatherDisplay:10.37,2013-07-29 18:35:00,
2013-07-29 14:40:00,74.8,64.4,28.78,West,270,5.8,5.8,70,0.00,CLR,SKC,0.00,WeatherDisplay:10.37,2013-07-29 18:40:00,
2013-07-29 14:45:00,74.3,64.7,28.78,West,270,4.6,4.6,72,0.00,CLR,SKC,0.00,WeatherDisplay:10.37,2013-07-29 18:45:00,
2013-07-29 14:52:00,73.9,65.1,28.78,West,270,3.5,0.0,74,0.00,CLR,SKC,0.00,WeatherDisplay:10.37,2013-07-29 18:52:00,
2013-07-29 14:57:00,73.9,64.7,28.78,South,180,1.2,1.2,73,0.00,CLR,SKC,0.00,WeatherDisplay:10.37,2013-07-29 18:57:00,
2013-07-29 15:02:00,74.3,65.5,28.78,East,90,3.5,3.5,74,0.00,CLR,SKC,0.00,WeatherDisplay:10.37,2013-07-29 19:02:00,
2013-07-29 15:07:00,74.3,65.5,28.78,East,90,3.5,3.5,74,0.00,CLR,SKC,0.00,WeatherDisplay:10.37,2013-07-29 19:07:00,
2013-07-29 15:12:00,76.8,65.9,28.78,North,11,2.3,0.0,69,0.00,CLR,SKC,0.00,WeatherDisplay:10.37,2013-07-29 19:12:00,
2013-07-29 15:18:00,75.4,64.9,28.78,SSE,158,2.3,2.3,70,0.00,CLR,SKC,0.00,WeatherDisplay:10.37,2013-07-29 19:18:00,
2013-07-29 15:23:00,74.5,64.9,28.78,East,90,2.3,2.3,72,0.00,CLR,SKC,0.00,WeatherDisplay:10.37,2013-07-29 19:23:00,
2013-07-29 15:28:00,74.3,65.1,28.78,South,180,3.5,3.5,73,0.00,CLR,SKC,0.00,WeatherDisplay:10.37,2013-07-29 19:28:00,
2013-07-29 15:33:00,75.2,65.6,28.77,South,180,2.3,0.0,72,0.00,CLR,SKC,0.00,WeatherDisplay:10.37,2013-07-29 19:33:00,
2013-07-29 15:38:00,76.5,65.9,28.77,SE,135,3.5,3.5,70,0.00,CLR,SKC,0.00,WeatherDisplay:10.37,2013-07-29 19:38:00,
2013-07-29 15:43:00,76.8,66.7,28.77,South,180,2.3,0.0,71,0.00,CLR,SKC,0.00,WeatherDisplay:10.37,2013-07-29 19:43:00,
2013-07-29 15:48:00,77.2,66.2,28.77,SE,135,2.3,2.3,69,0.00,CLR,SKC,0.00,WeatherDisplay:10.37,2013-07-29 19:48:00,
2013-07-29 15:53:00,76.5,65.9,28.77,South,180,2.3,0.0,70,0.00,CLR,SKC,0.00,WeatherDisplay:10.37,2013-07-29 19:53:00,
2013-07-29 15:58:00,75.4,65.3,28.77,South,180,1.2,0.0,71,0.00,CLR,SKC,0.00,WeatherDisplay:10.37,2013-07-29 19:58:00,
2013-07-29 16:03:00,74.8,65.2,28.77,South,180,0.0,0.0,72,0.00,CLR,SKC,0.00,WeatherDisplay:10.37,2013-07-29 20:03:00,
2013-07-29 16:08:00,73.9,65.5,28.77,West,270,0.0,0.7,75,0.00,CLR,SKC,0.00,WeatherDisplay:10.37,2013-07-29 20:08:00,
2013-07-29 16:13:00,74.5,66.0,28.77,South,180,4.6,0.0,75,0.00,CLR,SKC,0.00,WeatherDisplay:10.37,2013-07-29 20:13:00,
2013-07-29 16:18:00,74.8,64.8,28.77,NW,315,8.1,8.1,71,0.00,CLR,SKC,0.00,WeatherDisplay:10.37,2013-07-29 20:18:00,
2013-07-29 16:24:00,73.9,63.9,28.77,NW,315,8.1,8.1,71,0.00,CLR,SKC,0.00,WeatherDisplay:10.37,2013-07-29 20:24:00,
2013-07-29 16:29:00,73.9,64.7,28.77,SE,135,1.2,0.0,73,0.00,CLR,SKC,0.00,WeatherDisplay:10.37,2013-07-29 20:29:00,
2013-07-29 16:34:00,73.9,64.7,28.78,East,90,2.3,2.3,73,0.00,CLR,SKC,0.00,WeatherDisplay:10.37,2013-07-29 20:34:00,
2013-07-29 16:39:00,73.9,65.1,28.78,West,270,1.2,0.0,74,0.00,CLR,SKC,0.00,WeatherDisplay:10.37,2013-07-29 20:39:00,
2013-07-29 16:44:00,74.1,65.7,28.78,South,180,1.2,0.0,75,0.00,CLR,SKC,0.00,WeatherDisplay:10.37,2013-07-29 20:44:00,
2013-07-29 16:49:00,74.1,65.7,28.78,NW,315,3.5,3.5,75,0.00,CLR,SKC,0.00,WeatherDisplay:10.37,2013-07-29 20:49:00,
2013-07-29 16:54:00,73.9,65.5,28.78,West,270,2.3,0.0,75,0.00,CLR,SKC,0.00,WeatherDisplay:10.37,2013-07-29 20:54:00,
2013-07-29 16:59:00,73.8,65.3,28.78,South,180,1.2,0.0,75,0.00,CLR,SKC,0.00,WeatherDisplay:10.37,2013-07-29 20:59:00,
2013-07-29 17:04:00,73.6,65.2,28.78,SE,135,6.9,6.9,75,0.00,CLR,SKC,0.00,WeatherDisplay:10.37,2013-07-29 21:04:00,
2013-07-29 17:09:00,73.2,65.2,28.78,South,180,6.9,0.0,76,0.00,CLR,SKC,0.00,WeatherDisplay:10.37,2013-07-29 21:09:00,
2013-07-29 17:15:00,73.9,66.3,28.78,NW,315,1.2,0.0,77,0.00,CLR,SKC,0.00,WeatherDisplay:10.37,2013-07-29 21:15:00,
2013-07-29 17:20:00,74.5,66.4,28.78,West,270,2.3,2.3,76,0.00,CLR,SKC,0.00,WeatherDisplay:10.37,2013-07-29 21:20:00,
2013-07-29 17:25:00,74.3,65.9,28.78,South,180,3.5,0.0,75,0.00,CLR,SKC,0.00,WeatherDisplay:10.37,2013-07-29 21:25:00,
2013-07-29 17:30:00,73.9,65.1,28.78,SE,135,2.3,0.0,74,0.00,CLR,SKC,0.00,WeatherDisplay:10.37,2013-07-29 21:30:00,
2013-07-29 17:35:00,73.8,65.3,28.78,North,6,1.2,0.0,75,0.00,CLR,SKC,0.00,WeatherDisplay:10.37,2013-07-29 21:35:00,
2013-07-29 17:40:00,73.4,65.4,28.78,SE,135,1.2,1.2,76,0.00,CLR,SKC,0.00,WeatherDisplay:10.37,2013-07-29 21:40:00,
2013-07-29 17:45:00,72.7,65.4,28.79,West,270,0.0,0.0,78,0.00,CLR,SKC,0.00,WeatherDisplay:10.37,2013-07-29 21:45:00,
2013-07-29 17:51:00,72.0,65.1,28.79,West,270,3.5,0.0,79,0.00,CLR,SKC,0.00,WeatherDisplay:10.37,2013-07-29 21:51:00,
2013-07-29 17:57:00,71.4,64.9,28.78,West,270,3.1,0.0,80,0.00,CLR,SKC,0.00,WeatherDisplay:10.37,2013-07-29 21:57:00,
2013-07-29 18:03:00,71.4,64.9,28.79,North,0,2.3,0.0,80,0.00,CLR,SKC,0.00,WeatherDisplay:10.37,2013-07-29 22:03:00,
2013-07-29 18:08:00,71.8,65.6,28.79,North,0,2.3,0.0,81,0.00,CLR,SKC,0.00,WeatherDisplay:10.37,2013-07-29 22:08:00,
2013-07-29 18:14:00,71.8,65.3,28.79,West,270,2.3,2.3,80,0.00,CLR,SKC,0.00,WeatherDisplay:10.37,2013-07-29 22:14:00,
2013-07-29 18:19:00,71.8,65.6,28.79,West,270,2.3,0.0,81,0.00,CLR,SKC,0.00,WeatherDisplay:10.37,2013-07-29 22:19:00,
2013-07-29 18:24:00,72.3,65.8,28.79,West,270,3.5,3.5,80,0.00,CLR,SKC,0.00,WeatherDisplay:10.37,2013-07-29 22:24:00,
2013-07-29 18:29:00,72.7,65.8,28.79,West,270,5.8,5.8,79,0.00,CLR,SKC,0.00,WeatherDisplay:10.37,2013-07-29 22:29:00,
2013-07-29 18:35:00,73.0,65.0,28.79,NW,315,4.6,4.6,76,0.00,CLR,SKC,0.00,WeatherDisplay:10.37,2013-07-29 22:35:00,
2013-07-29 18:40:00,72.5,64.9,28.79,West,270,3.5,3.5,77,0.00,CLR,SKC,0.00,WeatherDisplay:10.37,2013-07-29 22:40:00,
2013-07-29 18:46:00,71.8,64.2,28.79,NW,315,8.1,8.1,77,0.00,CLR,SKC,0.00,WeatherDisplay:10.37,2013-07-29 22:46:00,
2013-07-29 18:51:00,71.4,64.6,28.80,West,270,4.6,4.6,79,0.00,CLR,SKC,0.00,WeatherDisplay:10.37,2013-07-29 22:51:00,
2013-07-29 18:56:00,71.2,64.4,28.79,West,270,5.8,0.0,79,0.00,CLR,SKC,0.00,WeatherDisplay:10.37,2013-07-29 22:56:00,
2013-07-29 19:01:00,71.2,64.4,28.80,West,270,3.5,3.5,79,0.00,CLR,SKC,0.00,WeatherDisplay:10.37,2013-07-29 23:01:00,
2013-07-29 19:07:00,71.4,64.9,28.79,NW,315,3.5,3.5,80,0.00,CLR,SKC,0.00,WeatherDisplay:10.37,2013-07-29 23:07:00,
2013-07-29 19:12:00,71.6,64.7,28.80,NW,315,3.5,0.0,79,0.00,CLR,SKC,0.00,WeatherDisplay:10.37,2013-07-29 23:12:00,
2013-07-29 19:18:00,72.0,64.7,28.79,West,270,3.5,3.5,78,0.00,CLR,SKC,0.00,WeatherDisplay:10.37,2013-07-29 23:18:00,
2013-07-29 19:23:00,72.0,64.7,28.80,West,270,3.5,3.5,78,0.00,CLR,SKC,0.00,WeatherDisplay:10.37,2013-07-29 23:23:00,
2013-07-29 19:29:00,71.4,64.2,28.80,NW,315,10.4,10.4,78,0.00,CLR,SKC,0.00,WeatherDisplay:10.37,2013-07-29 23:29:00,
2013-07-29 19:34:00,70.7,63.9,28.80,West,270,5.8,5.8,79,0.00,CLR,SKC,0.00,WeatherDisplay:10.37,2013-07-29 23:34:00,
2013-07-29 19:39:00,70.2,64.1,28.80,West,270,6.9,6.9,81,0.00,CLR,SKC,0.00,WeatherDisplay:10.37,2013-07-29 23:39:00,
2013-07-29 19:44:00,69.8,63.7,28.80,NW,315,4.6,4.6,81,0.00,CLR,SKC,0.00,WeatherDisplay:10.37,2013-07-29 23:44:00,
2013-07-29 19:49:00,69.4,63.0,28.80,West,270,9.2,9.2,80,0.00,CLR,SKC,0.00,WeatherDisplay:10.37,2013-07-29 23:49:00,
2013-07-29 19:54:00,69.3,62.8,28.80,West,270,0.0,0.0,80,0.00,CLR,SKC,0.00,WeatherDisplay:10.37,2013-07-29 23:54:00,
2013-07-29 19:59:00,69.1,63.0,28.80,West,270,0.0,0.0,81,0.00,CLR,SKC,0.00,WeatherDisplay:10.37,2013-07-29 23:59:00,
2013-07-29 20:04:00,69.1,63.0,28.81,West,270,0.0,0.0,81,0.00,CLR,SKC,0.00,WeatherDisplay:10.37,2013-07-30 00:04:00,
2013-07-29 20:09:00,68.9,63.2,28.81,NW,315,3.5,3.5,82,0.00,CLR,SKC,0.00,WeatherDisplay:10.37,2013-07-30 00:09:00,
2013-07-29 20:14:00,68.7,63.0,28.81,West,270,0.0,0.0,82,0.00,CLR,SKC,0.00,WeatherDisplay:10.37,2013-07-30 00:14:00,
2013-07-29 20:19:00,68.4,62.6,28.81,NW,315,0.0,0.0,82,0.00,CLR,SKC,0.00,WeatherDisplay:10.37,2013-07-30 00:19:00,
2013-07-29 20:24:00,68.2,62.1,28.81,West,270,6.9,6.9,81,0.00,CLR,SKC,0.00,WeatherDisplay:10.37,2013-07-30 00:24:00,
2013-07-29 20:29:00,68.0,62.3,28.81,West,270,3.5,0.0,82,0.00,CLR,SKC,0.00,WeatherDisplay:10.37,2013-07-30 00:29:00,
2013-07-29 20:34:00,67.6,61.9,28.82,West,270,0.0,0.0,82,0.00,CLR,SKC,0.00,WeatherDisplay:10.37,2013-07-30 00:34:00,
2013-07-29 20:39:00,67.3,61.9,28.82,West,270,0.0,0.0,83,0.00,CLR,SKC,0.00,WeatherDisplay:10.37,2013-07-30 00:39:00,
2013-07-29 20:44:00,66.7,61.4,28.82,West,270,0.0,0.0,83,0.00,CLR,SKC,0.00,WeatherDisplay:10.37,2013-07-30 00:44:00,
2013-07-29 20:50:00,66.6,61.2,28.82,West,270,3.5,4.5,83,0.00,CLR,SKC,0.00,WeatherDisplay:10.37,2013-07-30 00:50:00,
2013-07-29 20:55:00,66.6,61.2,28.82,West,270,4.6,4.6,83,0.00,CLR,SKC,0.00,WeatherDisplay:10.37,2013-07-30 00:55:00,
2013-07-29 21:00:00,66.6,61.2,28.83,West,270,3.5,0.0,83,0.00,CLR,SKC,0.00,WeatherDisplay:10.37,2013-07-30 01:00:00,
2013-07-29 21:06:00,66.6,61.2,28.83,West,270,0.0,0.0,83,0.00,CLR,SKC,0.00,WeatherDisplay:10.37,2013-07-30 01:06:00,
2013-07-29 21:11:00,66.2,60.5,28.83,West,270,1.2,0.0,82,0.00,CLR,SKC,0.00,WeatherDisplay:10.37,2013-07-30 01:11:00,
2013-07-29 21:17:00,65.8,60.5,28.83,West,270,0.0,0.0,83,0.00,CLR,SKC,0.00,WeatherDisplay:10.37,2013-07-30 01:17:00,
2013-07-29 21:22:00,65.5,60.2,28.83,West,270,0.0,0.0,83,0.00,CLR,SKC,0.00,WeatherDisplay:10.37,2013-07-30 01:22:00,
2013-07-29 21:27:00,65.3,60.3,28.84,West,270,0.0,0.0,84,0.00,CLR,SKC,0.00,WeatherDisplay:10.37,2013-07-30 01:27:00,
2013-07-29 21:32:00,64.9,60.0,28.84,West,270,0.0,0.0,84,0.00,CLR,SKC,0.00,WeatherDisplay:10.37,2013-07-30 01:32:00,
2013-07-29 21:37:00,64.6,59.6,28.84,West,270,0.0,0.0,84,0.00,CLR,SKC,0.00,WeatherDisplay:10.37,2013-07-30 01:37:00,
2013-07-29 21:42:00,64.2,59.6,28.84,West,270,0.0,0.0,85,0.00,CLR,SKC,0.00,WeatherDisplay:10.37,2013-07-30 01:42:00,
2013-07-29 21:47:00,64.0,59.4,28.83,West,270,0.0,0.0,85,0.00,CLR,SKC,0.00,WeatherDisplay:10.37,2013-07-30 01:47:00,
2013-07-29 21:52:00,63.7,59.4,28.84,West,270,0.0,0.0,86,0.00,CLR,SKC,0.00,WeatherDisplay:10.37,2013-07-30 01:52:00,
2013-07-29 21:57:00,63.3,59.1,28.84,West,270,0.0,0.0,86,0.00,CLR,SKC,0.00,WeatherDisplay:10.37,2013-07-30 01:57:00,
2013-07-29 22:02:00,63.1,59.2,28.84,West,270,0.0,0.0,87,0.00,CLR,SKC,0.00,WeatherDisplay:10.37,2013-07-30 02:02:00,
2013-07-29 22:07:00,63.1,59.2,28.84,West,270,0.0,0.0,87,0.00,CLR,SKC,0.00,WeatherDisplay:10.37,2013-07-30 02:07:00,
2013-07-29 22:12:00,62.8,58.9,28.85,West,270,0.0,0.0,87,0.00,CLR,SKC,0.00,WeatherDisplay:10.37,2013-07-30 02:12:00,
2013-07-29 22:17:00,62.6,59.0,28.85,West,270,0.0,0.0,88,0.00,CLR,SKC,0.00,WeatherDisplay:10.37,2013-07-30 02:17:00,
2013-07-29 22:22:00,62.4,58.8,28.86,West,270,0.0,0.0,88,0.00,CLR,SKC,0.00,WeatherDisplay:10.37,2013-07-30 02:22:00,
2013-07-29 22:27:00,62.4,58.8,28.85,West,270,0.0,0.0,88,0.00,CLR,SKC,0.00,WeatherDisplay:10.37,2013-07-30 02:27:00,
2013-07-29 22:32:00,62.4,58.8,28.85,West,270,0.0,0.0,88,0.00,CLR,SKC,0.00,WeatherDisplay:10.37,2013-07-30 02:32:00,
2013-07-29 22:37:00,62.4,59.1,28.85,West,270,0.0,0.0,89,0.00,CLR,SKC,0.00,WeatherDisplay:10.37,2013-07-30 02:37:00,
2013-07-29 22:42:00,62.2,58.6,28.85,West,270,0.0,0.0,88,0.00,CLR,SKC,0.00,WeatherDisplay:10.37,2013-07-30 02:42:00,
2013-07-29 22:47:00,62.2,58.6,28.85,West,270,0.0,0.0,88,0.00,CLR,SKC,0.00,WeatherDisplay:10.37,2013-07-30 02:47:00,
2013-07-29 22:52:00,62.1,58.5,28.85,West,270,0.0,0.0,88,0.00,CLR,SKC,0.00,WeatherDisplay:10.37,2013-07-30 02:52:00,
2013-07-29 22:57:00,61.9,58.3,28.85,West,270,0.0,0.0,88,0.00,CLR,SKC,0.00,WeatherDisplay:10.37,2013-07-30 02:57:00,
2013-07-29 23:02:00,61.7,58.1,28.85,West,270,0.0,0.0,88,0.00,CLR,SKC,0.00,WeatherDisplay:10.37,2013-07-30 03:02:00,
2013-07-29 23:08:00,61.7,58.1,28.85,West,270,0.0,0.0,88,0.00,CLR,SKC,0.00,WeatherDisplay:10.37,2013-07-30 03:08:00,
2013-07-29 23:13:00,61.5,58.2,28.85,West,270,0.0,0.0,89,0.00,CLR,SKC,0.00,WeatherDisplay:10.37,2013-07-30 03:13:00,
2013-07-29 23:18:00,61.3,58.1,28.85,West,270,0.0,0.0,89,0.00,CLR,SKC,0.00,WeatherDisplay:10.37,2013-07-30 03:18:00,
2013-07-29 23:23:00,61.3,58.4,28.84,West,270,0.0,0.0,90,0.00,CLR,SKC,0.00,WeatherDisplay:10.37,2013-07-30 03:23:00,
2013-07-29 23:29:00,61.2,58.2,28.84,West,270,0.0,0.0,90,0.00,CLR,SKC,0.00,WeatherDisplay:10.37,2013-07-30 03:29:00,
2013-07-29 23:34:00,61.0,58.0,28.84,West,270,0.0,0.0,90,0.00,CLR,SKC,0.00,WeatherDisplay:10.37,2013-07-30 03:34:00,
2013-07-29 23:39:00,60.8,57.8,28.85,West,270,0.0,0.0,90,0.00,CLR,SKC,0.00,WeatherDisplay:10.37,2013-07-30 03:39:00,
2013-07-29 23:44:00,60.3,57.6,28.85,West,270,0.0,0.0,91,0.00,CLR,SKC,0.00,WeatherDisplay:10.37,2013-07-30 03:44:00,
2013-07-29 23:49:00,59.7,57.4,28.84,West,270,0.0,0.0,92,0.00,CLR,SKC,0.00,WeatherDisplay:10.37,2013-07-30 03:49:00,
2013-07-29 23:54:00,59.4,57.3,28.84,West,270,0.0,0.0,93,0.00,CLR,SKC,0.00,WeatherDisplay:10.37,2013-07-30 03:54:00,
2013-07-29 23:59:00,59.2,57.5,28.84,West,270,0.0,0.0,94,0.00,CLR,SKC,0.00,WeatherDisplay:10.37,2013-07-30 03:59:00,